Time;durP1;ratioP1;P1;durP2;ratioP2;P2;SDS_P1;SDS_P2;PMS_P1;PMS_P2;Temp;Humidity;BMP_temperature;BMP_pressure;BME280_temperature;BME280_humidity;BME280_pressure;Samples;Min_cycle;Max_cycle;Signal;HPM_P1;HPM_P2
2024/01/16 00:01:36;;;;;;;8.97;1.77;;;;;;;;;;4970129;29;20063;-59
2024/01/16 00:04:01;;;;;;;15.53;2.43;;;;;;;;;;4961409;28;20027;-60
2024/01/16 00:06:27;;;;;;;6.30;1.90;;;;;;;;;;4962314;29;20117;-56
2024/01/16 00:08:52;;;;;;;4.37;1.47;;;;;;;;;;4945977;29;20035;-59
2024/01/16 00:11:18;;;;;;;9.23;1.45;;;;;;;;;;4966612;29;20032;-59
2024/01/16 00:13:43;;;;;;;6.82;1.45;;;;;;;;;;4959051;29;20032;-58
2024/01/16 00:16:09;;;;;;;10.30;1.88;;;;;;;;;;4959385;29;20035;-57
2024/01/16 00:18:34;;;;;;;8.93;1.83;;;;;;;;;;4969687;29;20035;-58
2024/01/16 00:21:00;;;;;;;9.67;2.27;;;;;;;;;;4970045;29;20284;-56
2024/01/16 00:23:25;;;;;;;21.98;3.00;;;;;;;;;;4959563;29;20046;-55
2024/01/16 00:25:51;;;;;;;6.10;1.70;;;;;;;;;;4960801;29;20024;-59
2024/01/16 00:28:19;;;;;;;17.40;3.00;;;;;;;;;;4969071;29;20297;-58
2024/01/16 00:30:44;;;;;;;15.75;2.55;;;;;;;;;;4958577;29;20036;-58
2024/01/16 00:33:10;;;;;;;7.63;1.60;;;;;;;;;;4959031;29;20054;-60
2024/01/16 00:35:35;;;;;;;14.23;2.28;;;;;;;;;;4965561;29;20087;-58
2024/01/16 00:38:00;;;;;;;3.73;1.77;;;;;;;;;;4959583;29;20036;-58
2024/01/16 00:40:28;;;;;;;11.00;1.92;;;;;;;;;;4959514;29;20031;-57
2024/01/16 00:42:53;;;;;;;8.00;2.20;;;;;;;;;;4958558;29;20038;-58
2024/01/16 00:45:19;;;;;;;10.10;2.30;;;;;;;;;;4944338;29;20046;-59
2024/01/16 00:47:44;;;;;;;13.63;2.33;;;;;;;;;;4964386;29;20038;-59
2024/01/16 00:50:09;;;;;;;9.30;2.97;;;;;;;;;;4963139;29;20103;-60
2024/01/16 00:52:35;;;;;;;8.88;2.50;;;;;;;;;;4962128;29;20031;-57
2024/01/16 00:55:00;;;;;;;7.97;2.37;;;;;;;;;;4958662;29;20040;-58
2024/01/16 00:57:25;;;;;;;14.60;2.77;;;;;;;;;;4959619;29;20090;-57
2024/01/16 00:59:51;;;;;;;11.70;2.63;;;;;;;;;;4962413;29;20013;-59
2024/01/16 01:02:16;;;;;;;16.83;3.88;;;;;;;;;;4959307;29;20051;-59
2024/01/16 01:04:42;;;;;;;9.77;3.77;;;;;;;;;;4958673;29;20043;-58
2024/01/16 01:07:08;;;;;;;15.63;3.83;;;;;;;;;;4961639;29;20038;-59
2024/01/16 01:09:34;;;;;;;14.57;4.77;;;;;;;;;;4948726;29;20043;-58
2024/01/16 01:11:59;;;;;;;14.47;5.43;;;;;;;;;;4965986;29;20304;-58
2024/01/16 01:14:26;;;;;;;22.63;6.65;;;;;;;;;;4957965;29;20044;-58
2024/01/16 01:16:51;;;;;;;;;;;;;;;;;;4961310;28;20063;-57
2024/01/16 01:19:16;;;;;;;28.13;8.47;;;;;;;;;;4961971;29;19911;-60
2024/01/16 01:21:42;;;;;;;25.53;9.83;;;;;;;;;;4961927;29;20032;-58
2024/01/16 01:24:09;;;;;;;20.50;8.50;;;;;;;;;;4952656;29;20032;-57
2024/01/16 01:26:35;;;;;;;21.60;9.52;;;;;;;;;;4958270;29;20039;-59
2024/01/16 01:29:00;;;;;;;20.52;9.38;;;;;;;;;;4961676;29;20096;-54
2024/01/16 01:31:26;;;;;;;30.07;10.97;;;;;;;;;;4957884;29;20042;-56
2024/01/16 01:33:51;;;;;;;22.30;10.80;;;;;;;;;;4965248;29;20043;-60
2024/01/16 01:36:16;;;;;;;27.88;11.13;;;;;;;;;;4957823;29;20049;-58
2024/01/16 01:38:42;;;;;;;23.73;10.80;;;;;;;;;;4961609;29;20031;-57
2024/01/16 01:41:08;;;;;;;25.97;10.67;;;;;;;;;;4962011;29;20334;-59
2024/01/16 01:43:34;;;;;;;25.30;11.65;;;;;;;;;;4957871;29;20064;-57
2024/01/16 01:46:05;;;;;;;26.67;11.37;;;;;;;;;;4957715;29;20110;-58
2024/01/16 01:48:31;;;;;;;24.75;10.75;;;;;;;;;;4957367;29;20083;-59
2024/01/16 01:50:57;;;;;;;31.90;11.70;;;;;;;;;;4957044;29;20067;-59
2024/01/16 01:53:23;;;;;;;34.08;10.75;;;;;;;;;;4959957;29;20050;-56
2024/01/16 01:55:49;;;;;;;24.30;12.20;;;;;;;;;;4957383;29;20036;-58
2024/01/16 01:58:14;;;;;;;20.80;10.88;;;;;;;;;;4942287;29;20043;-59
2024/01/16 02:00:39;;;;;;;25.25;10.95;;;;;;;;;;4957360;29;20051;-58
2024/01/16 02:03:05;;;;;;;26.50;11.40;;;;;;;;;;4957363;29;20043;-56
2024/01/16 02:05:31;;;;;;;25.20;9.93;;;;;;;;;;4957728;29;20027;-59
2024/01/16 02:07:57;;;;;;;19.90;8.45;;;;;;;;;;4967350;29;20062;-59
2024/01/16 02:10:22;;;;;;;23.30;7.40;;;;;;;;;;4957264;29;20047;-57
2024/01/16 02:12:47;;;;;;;20.20;8.10;;;;;;;;;;4966807;29;20047;-57
2024/01/16 02:15:13;;;;;;;18.00;8.07;;;;;;;;;;4942126;29;20395;-57
2024/01/16 02:17:38;;;;;;;20.20;7.00;;;;;;;;;;4957579;29;20144;-55
2024/01/16 02:20:04;;;;;;;22.00;7.20;;;;;;;;;;4960733;29;20028;-53
2024/01/16 02:22:30;;;;;;;;;;;;;;;;;;4958003;29;20511;-59
2024/01/16 02:24:56;;;;;;;19.57;6.63;;;;;;;;;;4956714;29;19921;-57
2024/01/16 02:27:21;;;;;;;23.85;6.82;;;;;;;;;;4956520;29;20039;-58
2024/01/16 02:29:46;;;;;;;16.33;7.13;;;;;;;;;;4956226;29;20039;-56
2024/01/16 02:32:12;;;;;;;14.47;4.47;;;;;;;;;;4956397;29;20042;-60
2024/01/16 02:34:38;;;;;;;17.47;4.23;;;;;;;;;;4955278;29;20039;-59
2024/01/16 02:37:04;;;;;;;15.87;3.37;;;;;;;;;;4957100;29;20031;-58
2024/01/16 02:39:29;;;;;;;7.43;2.58;;;;;;;;;;4956610;29;20087;-59
2024/01/16 02:41:55;;;;;;;7.53;2.63;;;;;;;;;;4956294;29;20036;-57
2024/01/16 02:44:20;;;;;;;6.30;2.30;;;;;;;;;;4957891;29;20027;-58
2024/01/16 02:46:45;;;;;;;14.63;2.53;;;;;;;;;;4952161;29;20131;-59
2024/01/16 02:49:11;;;;;;;7.90;2.90;;;;;;;;;;4960258;29;20023;-58
2024/01/16 02:51:36;;;;;;;11.20;3.13;;;;;;;;;;4956900;29;20087;-59
2024/01/16 02:54:01;;;;;;;8.70;2.60;;;;;;;;;;4956578;29;20124;-59
2024/01/16 02:56:26;;;;;;;26.97;7.83;;;;;;;;;;4956585;29;20035;-57
2024/01/16 02:58:52;;;;;;;10.03;4.33;;;;;;;;;;4956597;29;20024;-60
2024/01/16 03:01:17;;;;;;;11.63;2.80;;;;;;;;;;4956619;29;20031;-59
2024/01/16 03:03:43;;;;;;;14.97;3.77;;;;;;;;;;4967239;29;20270;-58
2024/01/16 03:06:08;;;;;;;9.80;2.58;;;;;;;;;;4956631;29;20199;-58
2024/01/16 03:08:33;;;;;;;8.73;2.97;;;;;;;;;;4961815;29;20063;-58
2024/01/16 03:10:59;;;;;;;9.80;2.70;;;;;;;;;;4962502;29;20095;-58
2024/01/16 03:13:24;;;;;;;5.70;2.50;;;;;;;;;;4957454;29;20031;-58
2024/01/16 03:15:50;;;;;;;9.43;2.10;;;;;;;;;;4959447;29;20031;-58
2024/01/16 03:18:15;;;;;;;7.00;2.20;;;;;;;;;;4957894;29;20036;-59
2024/01/16 03:20:42;;;;;;;5.35;2.13;;;;;;;;;;4962929;29;20039;-59
2024/01/16 03:23:08;;;;;;;8.13;2.00;;;;;;;;;;4965696;29;20043;-58
2024/01/16 03:25:38;;;;;;;6.78;1.90;;;;;;;;;;4961090;29;20042;-61
2024/01/16 03:28:04;;;;;;;11.63;2.22;;;;;;;;;;4964004;29;20129;-59
2024/01/16 03:30:30;;;;;;;12.52;2.42;;;;;;;;;;4968969;29;20028;-60
2024/01/16 03:32:55;;;;;;;4.78;2.03;;;;;;;;;;4957101;29;20046;-59
2024/01/16 03:35:21;;;;;;;8.38;2.90;;;;;;;;;;4959654;29;20031;-59
2024/01/16 03:37:47;;;;;;;9.57;2.20;;;;;;;;;;4957992;29;20039;-59
2024/01/16 03:40:12;;;;;;;8.77;3.27;;;;;;;;;;4975497;29;20293;-60
2024/01/16 03:42:38;;;;;;;6.38;2.83;;;;;;;;;;4973240;29;20023;-58
2024/01/16 03:45:05;;;;;;;15.53;3.60;;;;;;;;;;4961041;29;20108;-58
2024/01/16 03:47:30;;;;;;;;;;;;;;;;;;4960586;29;20062;-60
2024/01/16 03:49:56;;;;;;;17.80;5.57;;;;;;;;;;4966686;29;19942;-59
2024/01/16 03:52:22;;;;;;;13.17;3.47;;;;;;;;;;4963248;29;20034;-57
2024/01/16 03:54:48;;;;;;;8.52;3.22;;;;;;;;;;4959646;29;20266;-60
2024/01/16 03:57:13;;;;;;;11.87;3.50;;;;;;;;;;4960188;29;20050;-61
2024/01/16 03:59:39;;;;;;;8.80;3.70;;;;;;;;;;4970886;29;20330;-59
2024/01/16 04:02:04;;;;;;;6.67;2.97;;;;;;;;;;4959806;29;20282;-61
2024/01/16 04:04:29;;;;;;;11.17;2.87;;;;;;;;;;4960988;29;20099;-59
2024/01/16 04:06:55;;;;;;;4.33;2.23;;;;;;;;;;4959581;29;20047;-60
2024/01/16 04:09:20;;;;;;;9.63;2.83;;;;;;;;;;4963688;29;20043;-58
2024/01/16 04:11:49;;;;;;;6.32;2.50;;;;;;;;;;4966536;29;20043;-57
2024/01/16 04:14:15;;;;;;;11.90;2.95;;;;;;;;;;4970166;29;20035;-58
2024/01/16 04:16:40;;;;;;;11.52;2.88;;;;;;;;;;4959360;29;20040;-58
2024/01/16 04:19:06;;;;;;;7.30;2.23;;;;;;;;;;4962028;29;20031;-60
2024/01/16 04:21:31;;;;;;;11.70;2.50;;;;;;;;;;4959462;29;20266;-59
2024/01/16 04:23:57;;;;;;;9.77;2.20;;;;;;;;;;4965600;29;20277;-59
2024/01/16 04:26:23;;;;;;;6.50;1.80;;;;;;;;;;4959354;29;20055;-60
2024/01/16 04:28:48;;;;;;;14.20;2.47;;;;;;;;;;4959362;29;20083;-59
2024/01/16 04:31:16;;;;;;;6.88;2.13;;;;;;;;;;4958783;29;20047;-58
2024/01/16 04:33:42;;;;;;;5.45;2.00;;;;;;;;;;4965051;29;20028;-58
2024/01/16 04:36:07;;;;;;;7.07;2.20;;;;;;;;;;4959089;29;20047;-61
2024/01/16 04:38:33;;;;;;;8.83;2.27;;;;;;;;;;4959181;29;20039;-57
2024/01/16 04:41:00;;;;;;;10.63;2.57;;;;;;;;;;4945296;29;20039;-58
2024/01/16 04:43:26;;;;;;;11.70;2.92;;;;;;;;;;4947935;29;20046;-59
2024/01/16 04:45:51;;;;;;;6.27;2.80;;;;;;;;;;4969731;29;20035;-59
2024/01/16 04:48:17;;;;;;;5.47;1.73;;;;;;;;;;4960049;29;20276;-56
2024/01/16 04:50:43;;;;;;;6.40;2.07;;;;;;;;;;4963284;29;20266;-58
2024/01/16 04:53:08;;;;;;;9.93;2.58;;;;;;;;;;4961326;29;20043;-60
2024/01/16 04:55:34;;;;;;;10.53;1.97;;;;;;;;;;4958330;29;20099;-60
2024/01/16 04:58:00;;;;;;;8.40;2.90;;;;;;;;;;4946627;29;20266;-59
2024/01/16 05:00:25;;;;;;;9.47;3.00;;;;;;;;;;4960516;29;20031;-58
2024/01/16 05:02:51;;;;;;;14.80;4.10;;;;;;;;;;4958430;29;20262;-58
2024/01/16 05:05:17;;;;;;;8.87;2.80;;;;;;;;;;4958569;29;20407;-59
2024/01/16 05:07:43;;;;;;;7.03;2.65;;;;;;;;;;4958385;29;20031;-58
2024/01/16 05:10:15;;;;;;;17.00;2.47;;;;;;;;;;4959645;29;20032;-59
2024/01/16 05:12:40;;;;;;;10.85;2.90;;;;;;;;;;4958229;29;20042;-58
2024/01/16 05:15:07;;;;;;;21.50;2.92;;;;;;;;;;4958217;29;20024;-59
2024/01/16 05:17:32;;;;;;;9.20;2.58;;;;;;;;;;4958596;29;20067;-59
2024/01/16 05:19:57;;;;;;;11.33;3.93;;;;;;;;;;4959730;29;20060;-57
2024/01/16 05:22:22;;;;;;;19.13;4.70;;;;;;;;;;4958622;29;20031;-57
2024/01/16 05:24:48;;;;;;;16.52;5.95;;;;;;;;;;4957958;29;20063;-56
2024/01/16 05:27:14;;;;;;;11.83;3.40;;;;;;;;;;4958297;29;20040;-54
2024/01/16 05:29:42;;;;;;;14.35;3.40;;;;;;;;;;4960338;29;20035;-55
2024/01/16 05:32:08;;;;;;;8.65;2.38;;;;;;;;;;4958198;29;20042;-55
2024/01/16 05:34:34;;;;;;;10.07;2.10;;;;;;;;;;4957723;29;20764;-60
2024/01/16 05:36:59;;;;;;;6.70;2.37;;;;;;;;;;4957979;29;20060;-57
2024/01/16 05:39:24;;;;;;;10.30;2.50;;;;;;;;;;4957755;29;20042;-57
2024/01/16 05:41:49;;;;;;;15.00;2.87;;;;;;;;;;4957888;29;20038;-56
2024/01/16 05:44:15;;;;;;;8.43;2.10;;;;;;;;;;4957776;29;20035;-59
2024/01/16 05:46:41;;;;;;;12.40;3.05;;;;;;;;;;4957698;29;20071;-59
2024/01/16 05:49:06;;;;;;;13.25;2.55;;;;;;;;;;4957479;29;20127;-59
2024/01/16 05:51:32;;;;;;;16.40;2.53;;;;;;;;;;4964584;29;20032;-59
2024/01/16 05:53:57;;;;;;;11.02;2.22;;;;;;;;;;4957689;29;20034;-58
2024/01/16 05:56:23;;;;;;;16.23;4.67;;;;;;;;;;4957315;29;20069;-56
2024/01/16 05:58:48;;;;;;;6.27;2.27;;;;;;;;;;4957271;29;20258;-57
2024/01/16 06:01:14;;;;;;;12.57;2.73;;;;;;;;;;4963149;28;20380;-58
2024/01/16 06:03:39;;;;;;;13.87;2.90;;;;;;;;;;4960650;29;20027;-61
2024/01/16 06:06:05;;;;;;;14.18;2.70;;;;;;;;;;4958874;29;20043;-58
2024/01/16 06:08:30;;;;;;;15.95;3.05;;;;;;;;;;4957442;29;20050;-57
2024/01/16 06:10:56;;;;;;;10.67;3.13;;;;;;;;;;4959462;29;20042;-58
2024/01/16 06:13:22;;;;;;;12.60;2.57;;;;;;;;;;4958901;29;20031;-60
2024/01/16 06:15:48;;;;;;;;;;;;;;;;;;4957149;29;20031;-59
2024/01/16 06:18:13;;;;;;;9.40;3.27;;;;;;;;;;4957458;29;19911;-58
2024/01/16 06:20:38;;;;;;;5.07;2.43;;;;;;;;;;4958537;29;20035;-59
2024/01/16 06:23:04;;;;;;;12.20;4.13;;;;;;;;;;4945169;29;20035;-59
2024/01/16 06:25:29;;;;;;;17.47;5.00;;;;;;;;;;4956676;29;20027;-59
2024/01/16 06:27:55;;;;;;;8.98;3.80;;;;;;;;;;4956949;29;20063;-59
2024/01/16 06:30:21;;;;;;;11.27;3.85;;;;;;;;;;4960282;29;20105;-59
2024/01/16 06:32:48;;;;;;;12.50;5.05;;;;;;;;;;4965012;29;20035;-57
2024/01/16 06:35:15;;;;;;;16.08;5.25;;;;;;;;;;4956777;29;20031;-61
2024/01/16 06:37:40;;;;;;;13.65;5.95;;;;;;;;;;4963198;29;20023;-59
2024/01/16 06:40:06;;;;;;;18.77;5.93;;;;;;;;;;4957865;29;20034;-57
2024/01/16 06:42:31;;;;;;;26.60;6.78;;;;;;;;;;4960387;29;20031;-59
2024/01/16 06:44:57;;;;;;;22.27;6.60;;;;;;;;;;4956029;29;20044;-60
2024/01/16 06:47:23;;;;;;;19.10;7.77;;;;;;;;;;4956420;29;20281;-56
2024/01/16 06:49:49;;;;;;;15.23;6.75;;;;;;;;;;4940175;29;20063;-58
2024/01/16 06:52:14;;;;;;;14.68;5.43;;;;;;;;;;4958713;29;20055;-57
2024/01/16 06:54:39;;;;;;;20.70;6.90;;;;;;;;;;4955790;29;20039;-57
2024/01/16 06:57:05;;;;;;;15.23;6.73;;;;;;;;;;4943103;29;20107;-58
2024/01/16 06:59:30;;;;;;;15.27;7.37;;;;;;;;;;4956734;29;20261;-58
2024/01/16 07:01:56;;;;;;;27.20;7.53;;;;;;;;;;4946391;29;20265;-58
2024/01/16 07:04:21;;;;;;;26.90;7.80;;;;;;;;;;4942961;29;20036;-59
2024/01/16 07:06:48;;;;;;;21.08;8.27;;;;;;;;;;4956249;29;20040;-59
2024/01/16 07:09:13;;;;;;;21.23;7.75;;;;;;;;;;4939909;29;20036;-58
2024/01/16 07:11:42;;;;;;;18.40;6.40;;;;;;;;;;4957063;29;20032;-59
2024/01/16 07:14:09;;;;;;;23.63;8.77;;;;;;;;;;4962187;29;20333;-60
2024/01/16 07:16:34;;;;;;;26.40;11.68;;;;;;;;;;4962554;29;20103;-58
2024/01/16 07:18:59;;;;;;;32.10;11.80;;;;;;;;;;4962534;29;20063;-59
2024/01/16 07:21:25;;;;;;;22.00;8.38;;;;;;;;;;4962689;29;20047;-58
2024/01/16 07:23:51;;;;;;;23.20;8.00;;;;;;;;;;4962735;29;20038;-58
2024/01/16 07:26:16;;;;;;;29.60;9.50;;;;;;;;;;4962717;29;20272;-58
2024/01/16 07:28:42;;;;;;;23.58;9.57;;;;;;;;;;4957623;29;20032;-61
2024/01/16 07:31:09;;;;;;;24.40;9.77;;;;;;;;;;4955354;28;20031;-56
2024/01/16 07:33:34;;;;;;;21.88;9.63;;;;;;;;;;4972239;29;20268;-58
2024/01/16 07:36:00;;;;;;;18.70;9.53;;;;;;;;;;4971253;29;20055;-60
2024/01/16 07:38:25;;;;;;;25.33;10.40;;;;;;;;;;4952427;29;20038;-60
2024/01/16 07:40:51;;;;;;;17.90;8.47;;;;;;;;;;4963968;29;20035;-60
2024/01/16 07:43:16;;;;;;;25.03;12.13;;;;;;;;;;4963932;29;20273;-59
2024/01/16 07:45:42;;;;;;;20.17;10.52;;;;;;;;;;4965832;28;20042;-61
2024/01/16 07:48:08;;;;;;;23.63;10.07;;;;;;;;;;4960576;29;20032;-60
2024/01/16 07:50:33;;;;;;;21.42;10.70;;;;;;;;;;4961699;29;20039;-58
2024/01/16 07:52:59;;;;;;;35.07;10.40;;;;;;;;;;4970249;28;20063;-59
2024/01/16 07:55:24;;;;;;;32.72;10.75;;;;;;;;;;4960433;29;20038;-60
2024/01/16 07:57:50;;;;;;;17.00;7.88;;;;;;;;;;4962627;29;20063;-59
2024/01/16 08:00:16;;;;;;;30.20;10.57;;;;;;;;;;4961711;29;20031;-60
2024/01/16 08:02:41;;;;;;;29.23;10.07;;;;;;;;;;4963686;29;20044;-60
2024/01/16 08:05:07;;;;;;;20.27;9.00;;;;;;;;;;4962680;29;20290;-59
2024/01/16 08:07:34;;;;;;;21.77;10.63;;;;;;;;;;4945741;29;20052;-58
2024/01/16 08:09:59;;;;;;;28.40;10.90;;;;;;;;;;4962669;29;20060;-58
2024/01/16 08:12:25;;;;;;;32.63;10.75;;;;;;;;;;4968652;28;20035;-59
2024/01/16 08:14:52;;;;;;;38.67;9.77;;;;;;;;;;4966342;29;20035;-56
2024/01/16 08:17:17;;;;;;;51.78;12.50;;;;;;;;;;4945456;29;20043;-57
2024/01/16 08:19:43;;;;;;;24.02;8.55;;;;;;;;;;4963502;29;20032;-59
2024/01/16 08:22:09;;;;;;;25.30;9.27;;;;;;;;;;4962455;29;20102;-56
2024/01/16 08:24:34;;;;;;;28.52;10.10;;;;;;;;;;4963416;29;20039;-61
2024/01/16 08:26:59;;;;;;;26.90;8.97;;;;;;;;;;4961928;29;20035;-60
2024/01/16 08:29:25;;;;;;;18.83;8.52;;;;;;;;;;4959107;29;20067;-60
2024/01/16 08:31:54;;;;;;;19.23;8.30;;;;;;;;;;4965041;29;20047;-60
2024/01/16 08:34:19;;;;;;;19.75;7.95;;;;;;;;;;4961433;29;20023;-59
2024/01/16 08:36:45;;;;;;;18.83;7.10;;;;;;;;;;4961547;29;20111;-59
2024/01/16 08:39:10;;;;;;;14.00;6.37;;;;;;;;;;4959145;29;20047;-60
2024/01/16 08:41:36;;;;;;;14.75;7.00;;;;;;;;;;4962099;29;20039;-62
2024/01/16 08:44:01;;;;;;;28.70;9.17;;;;;;;;;;4959065;29;20040;-57
2024/01/16 08:46:26;;;;;;;26.10;7.70;;;;;;;;;;4965876;29;20099;-60
2024/01/16 08:48:52;;;;;;;16.33;7.15;;;;;;;;;;4942034;29;20027;-58
2024/01/16 08:51:18;;;;;;;17.60;7.90;;;;;;;;;;4961440;29;20042;-59
2024/01/16 08:53:43;;;;;;;22.20;7.90;;;;;;;;;;4960347;29;20281;-59
2024/01/16 08:56:09;;;;;;;22.63;7.87;;;;;;;;;;4963026;29;20282;-59
2024/01/16 08:58:36;;;;;;;19.13;7.68;;;;;;;;;;4960073;29;20028;-60
2024/01/16 09:01:05;;;;;;;19.45;6.53;;;;;;;;;;4967097;29;20032;-59
2024/01/16 09:03:32;;;;;;;15.20;6.88;;;;;;;;;;4959651;29;20108;-57
2024/01/16 09:05:57;;;;;;;25.88;7.40;;;;;;;;;;4960521;29;20036;-60
2024/01/16 09:08:23;;;;;;;15.05;6.25;;;;;;;;;;4958214;29;20043;-58
2024/01/16 09:10:48;;;;;;;13.63;5.87;;;;;;;;;;4965327;29;20043;-60
2024/01/16 09:13:14;;;;;;;15.07;6.97;;;;;;;;;;4970867;29;20296;-56
2024/01/16 09:15:39;;;;;;;15.53;6.57;;;;;;;;;;4958207;29;20289;-56
2024/01/16 09:18:04;;;;;;;18.60;6.60;;;;;;;;;;4958047;29;20042;-58
2024/01/16 09:20:30;;;;;;;18.00;5.88;;;;;;;;;;4941671;29;20039;-56
2024/01/16 09:22:56;;;;;;;24.07;6.13;;;;;;;;;;4963991;29;20047;-60
2024/01/16 09:25:23;;;;;;;14.47;4.67;;;;;;;;;;4962641;29;20337;-59
2024/01/16 09:27:49;;;;;;;19.83;6.25;;;;;;;;;;4951037;29;20330;-59
2024/01/16 09:30:15;;;;;;;11.93;4.30;;;;;;;;;;4957825;29;20051;-58
2024/01/16 09:32:40;;;;;;;14.77;5.70;;;;;;;;;;4957759;29;20040;-58
2024/01/16 09:35:08;;;;;;;12.03;6.40;;;;;;;;;;4957522;29;20334;-57
2024/01/16 09:37:33;;;;;;;12.32;5.07;;;;;;;;;;4957970;29;20042;-59
2024/01/16 09:39:58;;;;;;;15.13;5.53;;;;;;;;;;4957788;29;20040;-59
2024/01/16 09:42:24;;;;;;;18.63;6.25;;;;;;;;;;4962261;29;20035;-55
2024/01/16 09:44:51;;;;;;;15.77;5.38;;;;;;;;;;4961352;29;20027;-60
2024/01/16 09:47:18;;;;;;;13.45;4.93;;;;;;;;;;4958794;29;20039;-59
2024/01/16 09:49:46;;;;;;;13.93;4.43;;;;;;;;;;4962445;29;20039;-56
2024/01/16 09:52:11;;;;;;;9.73;4.43;;;;;;;;;;4959622;29;20092;-56
2024/01/16 09:54:37;;;;;;;15.40;6.07;;;;;;;;;;4957342;29;20036;-58
2024/01/16 09:57:05;;;;;;;10.25;3.92;;;;;;;;;;4957356;29;20034;-59
2024/01/16 09:59:31;;;;;;;9.25;4.03;;;;;;;;;;4956961;29;20035;-59
2024/01/16 10:01:58;;;;;;;9.65;4.70;;;;;;;;;;4957443;29;20091;-62
2024/01/16 10:04:23;;;;;;;14.98;4.35;;;;;;;;;;4957927;29;20036;-63
2024/01/16 10:06:49;;;;;;;11.40;3.97;;;;;;;;;;4957656;29;20063;-61
2024/01/16 10:09:15;;;;;;;;;;;;;;;;;;4957951;29;20099;-61
2024/01/16 10:11:41;;;;;;;10.20;3.53;;;;;;;;;;4959141;29;19915;-62
2024/01/16 10:14:08;;;;;;;15.60;5.90;;;;;;;;;;4964553;29;20059;-63
2024/01/16 10:16:53;;;;;;;10.45;3.72;;;;;;;;;;4967850;29;20031;-63
2024/01/16 10:19:18;;;;;;;12.77;4.20;;;;;;;;;;4957129;29;20091;-63
2024/01/16 10:21:44;;;;;;;13.80;4.20;;;;;;;;;;4959249;29;20063;-63
2024/01/16 10:24:15;;;;;;;8.90;3.20;;;;;;;;;;4957609;29;20031;-63
2024/01/16 10:26:41;;;;;;;7.88;3.50;;;;;;;;;;4960486;28;20035;-61
2024/01/16 10:29:06;;;;;;;11.00;3.30;;;;;;;;;;4957418;29;20047;-62
2024/01/16 10:31:32;;;;;;;10.05;3.78;;;;;;;;;;4957205;29;20036;-62
2024/01/16 10:33:57;;;;;;;7.83;3.27;;;;;;;;;;4957417;29;20023;-58
2024/01/16 10:36:23;;;;;;;10.47;3.37;;;;;;;;;;4956763;29;20051;-59
2024/01/16 10:38:57;;;;;;;11.75;3.25;;;;;;;;;;4956877;29;20097;-60
2024/01/16 10:41:25;;;;;;;6.40;3.00;;;;;;;;;;4955566;29;20058;-60
2024/01/16 10:43:55;;;;;;;8.20;2.80;;;;;;;;;;4959073;29;20266;-61
2024/01/16 10:46:23;;;;;;;8.40;3.53;;;;;;;;;;4966232;29;20269;-59
2024/01/16 10:49:02;;;;;;;7.20;3.00;;;;;;;;;;4956084;29;20263;-62
2024/01/16 10:51:28;;;;;;;8.47;3.20;;;;;;;;;;4961509;29;20242;-60
2024/01/16 10:54:05;;;;;;;7.53;3.60;;;;;;;;;;4962530;29;20262;-61
2024/01/16 10:56:32;;;;;;;10.93;3.20;;;;;;;;;;4960428;29;20043;-61
2024/01/16 10:59:01;;;;;;;9.63;2.95;;;;;;;;;;4956304;29;20270;-62
2024/01/16 11:01:26;;;;;;;9.90;3.13;;;;;;;;;;4956726;29;20047;-62
2024/01/16 11:03:53;;;;;;;10.80;3.53;;;;;;;;;;4968799;29;20289;-60
2024/01/16 11:06:19;;;;;;;11.13;3.63;;;;;;;;;;4959059;29;20036;-61
2024/01/16 11:08:48;;;;;;;20.20;3.37;;;;;;;;;;4956553;29;20378;-60
2024/01/16 11:11:14;;;;;;;7.10;2.90;;;;;;;;;;4970905;29;20269;-61
2024/01/16 11:13:41;;;;;;;7.82;2.95;;;;;;;;;;4967686;29;20277;-60
2024/01/16 11:16:08;;;;;;;11.43;3.07;;;;;;;;;;4957120;29;20036;-61
2024/01/16 11:18:37;;;;;;;12.80;3.00;;;;;;;;;;4956369;29;20262;-62
2024/01/16 11:21:13;;;;;;;11.10;4.57;;;;;;;;;;4959625;29;20276;-60
2024/01/16 11:23:39;;;;;;;11.30;3.95;;;;;;;;;;4956304;29;20270;-60
2024/01/16 11:26:23;;;;;;;7.53;3.20;;;;;;;;;;4956777;29;20095;-60
2024/01/16 11:28:49;;;;;;;9.10;2.93;;;;;;;;;;4956302;29;20277;-61
2024/01/16 11:31:31;;;;;;;8.82;3.85;;;;;;;;;;4956257;29;20270;-61
2024/01/16 11:33:59;;;;;;;8.27;3.33;;;;;;;;;;4957736;29;20039;-60
2024/01/16 11:36:58;;;;;;;9.50;3.37;;;;;;;;;;4964947;29;20292;-60
2024/01/16 11:39:24;;;;;;;8.25;3.33;;;;;;;;;;4914269;29;20270;-59
2024/01/16 11:41:57;;;;;;;10.60;3.50;;;;;;;;;;4957015;29;20071;-60
2024/01/16 11:44:42;;;;;;;8.63;3.33;;;;;;;;;;4959883;29;20266;-59
2024/01/16 11:47:08;;;;;;;8.20;3.30;;;;;;;;;;4958893;29;20254;-60
2024/01/16 11:49:37;;;;;;;6.65;3.35;;;;;;;;;;4956324;29;20326;-61
2024/01/16 11:52:02;;;;;;;10.13;3.73;;;;;;;;;;4963608;29;20046;-57
2024/01/16 11:54:28;;;;;;;8.10;3.95;;;;;;;;;;4958151;29;20027;-60
2024/01/16 11:57:12;;;;;;;6.65;3.03;;;;;;;;;;4960162;29;20051;-58
2024/01/16 11:59:56;;;;;;;9.10;3.67;;;;;;;;;;4958699;29;20051;-60
2024/01/16 12:02:26;;;;;;;8.33;3.80;;;;;;;;;;4961945;29;20337;-60
2024/01/16 12:04:54;;;;;;;8.67;3.03;;;;;;;;;;4970210;29;20039;-59
2024/01/16 12:07:20;;;;;;;10.13;3.70;;;;;;;;;;4961272;29;20038;-57
2024/01/16 12:09:45;;;;;;;12.93;3.30;;;;;;;;;;4959369;29;20051;-60
2024/01/16 12:12:12;;;;;;;5.87;2.93;;;;;;;;;;4958992;29;20039;-57
2024/01/16 12:14:38;;;;;;;7.60;3.57;;;;;;;;;;4969092;29;20063;-60
2024/01/16 12:17:13;;;;;;;8.15;3.40;;;;;;;;;;4971337;29;20039;-58
2024/01/16 12:19:41;;;;;;;6.50;3.20;;;;;;;;;;4959346;29;20044;-62
2024/01/16 12:22:10;;;;;;;6.53;3.37;;;;;;;;;;4959122;29;20039;-61
2024/01/16 12:24:36;;;;;;;11.83;3.30;;;;;;;;;;4951153;29;20031;-58
2024/01/16 12:27:02;;;;;;;8.90;3.45;;;;;;;;;;4959158;29;20095;-59
2024/01/16 12:29:29;;;;;;;9.02;3.20;;;;;;;;;;4949511;29;20059;-60
2024/01/16 12:32:10;;;;;;;12.90;2.97;;;;;;;;;;4955810;29;20055;-59
2024/01/16 12:34:47;;;;;;;5.93;2.50;;;;;;;;;;4965113;29;20051;-61
2024/01/16 12:37:13;;;;;;;7.63;3.13;;;;;;;;;;4959508;29;20032;-60
2024/01/16 12:39:38;;;;;;;7.60;2.50;;;;;;;;;;4942445;29;20039;-61
2024/01/16 12:42:04;;;;;;;9.00;2.90;;;;;;;;;;4958892;29;20039;-59
2024/01/16 12:44:30;;;;;;;10.88;3.38;;;;;;;;;;4945449;29;20032;-60
2024/01/16 12:46:56;;;;;;;5.40;2.38;;;;;;;;;;4959093;29;20031;-60
2024/01/16 12:49:22;;;;;;;9.25;2.95;;;;;;;;;;4958887;29;20035;-61
2024/01/16 12:51:49;;;;;;;7.47;2.33;;;;;;;;;;4958519;29;20036;-59
2024/01/16 12:54:16;;;;;;;5.83;2.73;;;;;;;;;;4962091;29;20047;-60
2024/01/16 12:56:42;;;;;;;8.40;2.63;;;;;;;;;;4958854;29;20262;-61
2024/01/16 12:59:11;;;;;;;7.33;3.27;;;;;;;;;;4958606;29;20289;-60
2024/01/16 13:01:39;;;;;;;8.17;3.03;;;;;;;;;;4958241;29;20040;-60
2024/01/16 13:04:05;;;;;;;8.90;3.00;;;;;;;;;;4958672;29;20266;-57
2024/01/16 13:06:30;;;;;;;5.80;2.27;;;;;;;;;;4958770;29;20262;-61
2024/01/16 13:09:06;;;;;;;14.33;3.30;;;;;;;;;;4942340;29;20378;-60
2024/01/16 13:11:31;;;;;;;5.20;2.67;;;;;;;;;;4957645;29;20278;-60
2024/01/16 13:14:03;;;;;;;10.83;3.57;;;;;;;;;;4959292;29;20294;-59
2024/01/16 13:16:29;;;;;;;7.53;2.93;;;;;;;;;;4958827;29;20282;-61
2024/01/16 13:19:01;;;;;;;9.80;2.70;;;;;;;;;;4941600;29;20266;-60
2024/01/16 13:21:27;;;;;;;13.10;3.10;;;;;;;;;;4957933;29;20254;-60
2024/01/16 13:23:52;;;;;;;6.10;2.30;;;;;;;;;;4964886;29;20698;-59
2024/01/16 13:26:18;;;;;;;9.43;2.53;;;;;;;;;;4960220;29;20302;-60
2024/01/16 13:28:43;;;;;;;9.45;4.45;;;;;;;;;;4959633;29;20262;-61
2024/01/16 13:31:09;;;;;;;6.78;2.60;;;;;;;;;;4958187;29;20035;-62
2024/01/16 13:33:34;;;;;;;10.57;2.63;;;;;;;;;;4961980;29;20224;-60
2024/01/16 13:36:00;;;;;;;5.83;2.70;;;;;;;;;;4958108;29;20052;-61
2024/01/16 13:38:26;;;;;;;7.57;2.55;;;;;;;;;;4959282;29;20118;-60
2024/01/16 13:40:51;;;;;;;7.83;3.50;;;;;;;;;;4957492;29;20039;-60
2024/01/16 13:43:17;;;;;;;11.35;3.03;;;;;;;;;;4961611;29;20051;-61
2024/01/16 13:45:43;;;;;;;9.00;3.05;;;;;;;;;;4965839;29;20032;-57
2024/01/16 13:48:08;;;;;;;10.18;2.97;;;;;;;;;;4969726;29;20038;-60
2024/01/16 13:50:34;;;;;;;6.63;2.30;;;;;;;;;;4958195;29;20036;-58
2024/01/16 13:53:00;;;;;;;10.82;3.47;;;;;;;;;;4958205;29;20039;-60
2024/01/16 13:55:26;;;;;;;7.25;2.35;;;;;;;;;;4957971;29;20071;-61
2024/01/16 13:57:51;;;;;;;10.57;2.92;;;;;;;;;;4957740;29;20023;-59
2024/01/16 14:00:17;;;;;;;17.45;3.72;;;;;;;;;;4957802;29;20060;-59
2024/01/16 14:02:44;;;;;;;11.43;2.95;;;;;;;;;;4958079;29;20027;-60
2024/01/16 14:05:15;;;;;;;11.45;3.28;;;;;;;;;;4965251;29;20032;-60
2024/01/16 14:07:50;;;;;;;10.53;3.27;;;;;;;;;;4957610;29;20063;-59
2024/01/16 14:10:16;;;;;;;9.33;2.57;;;;;;;;;;4957579;29;20272;-58
2024/01/16 14:12:44;;;;;;;7.68;2.67;;;;;;;;;;4957670;29;20286;-58
2024/01/16 14:15:16;;;;;;;9.43;3.37;;;;;;;;;;4963691;29;20036;-60
2024/01/16 14:17:43;;;;;;;11.37;3.33;;;;;;;;;;4957384;29;20027;-62
2024/01/16 14:20:11;;;;;;;6.82;2.38;;;;;;;;;;4956813;29;20040;-61
2024/01/16 14:22:37;;;;;;;11.70;2.83;;;;;;;;;;4955386;29;20058;-61
2024/01/16 14:25:04;;;;;;;;;;;;;;;;;;4957597;29;20032;-60
2024/01/16 14:27:30;;;;;;;6.82;2.25;;;;;;;;;;4957219;29;19938;-61
2024/01/16 14:29:56;;;;;;;8.43;2.70;;;;;;;;;;4957014;29;20040;-59
2024/01/16 14:32:21;;;;;;;6.60;2.55;;;;;;;;;;4956952;29;20051;-61